Sign in

Advertising

Info

Aviation weather - KDAB

METAR KDAB 220053Z 00000KT 10SM FEW250 21/16 A2983 RMK AO2 SLP099 T02060161

TAF KDAB 212359Z 2200/2224 21005KT P6SM SCT060 BKN250 FM220800 19008KT P6SM BKN035 WS015/22034KT FM221300 20014G24KT P6SM SCT015 BKN035 FM222000 21018G28KT P6SM VCTS BKN035CB TEMPO 2221/2223 25020G40KT 2SM +TSRA

Aviation weather from ADDS. Re-check weather before flight.

-